sensor_id;sensor_type;location;lat;lon;timestamp;pressure;altitude;pressure_sealevel;temperature;humidity
29569;BME280;16501;51.462;14.346;2023-11-18T00:00:29;100660.72;;;3.15;100.00
29569;BME280;16501;51.462;14.346;2023-11-18T00:02:54;100638.38;;;2.95;100.00
29569;BME280;16501;51.462;14.346;2023-11-18T00:05:19;100695.44;;;3.27;100.00
29569;BME280;16501;51.462;14.346;2023-11-18T00:07:45;100667.97;;;3.05;100.00
29569;BME280;16501;51.462;14.346;2023-11-18T00:10:11;100665.19;;;3.05;100.00
29569;BME280;16501;51.462;14.346;2023-11-18T00:12:39;100682.84;;;3.18;100.00
29569;BME280;16501;51.462;14.346;2023-11-18T00:15:06;100688.34;;;3.22;100.00
29569;BME280;16501;51.462;14.346;2023-11-18T00:17:34;100675.75;;;3.17;100.00
29569;BME280;16501;51.462;14.346;2023-11-18T00:19:59;100688.13;;;3.06;100.00
29569;BME280;16501;51.462;14.346;2023-11-18T00:22:24;100706.59;;;3.19;100.00
29569;BME280;16501;51.462;14.346;2023-11-18T00:24:49;100701.13;;;3.12;100.00
29569;BME280;16501;51.462;14.346;2023-11-18T00:27:15;100703.53;;;3.10;100.00
29569;BME280;16501;51.462;14.346;2023-11-18T00:29:41;100715.44;;;3.07;100.00
29569;BME280;16501;51.462;14.346;2023-11-18T00:32:06;100718.13;;;3.14;100.00
29569;BME280;16501;51.462;14.346;2023-11-18T00:34:32;100702.84;;;2.99;100.00
29569;BME280;16501;51.462;14.346;2023-11-18T00:36:58;100695.75;;;2.94;100.00
29569;BME280;16501;51.462;14.346;2023-11-18T00:39:23;100708.00;;;2.97;100.00
29569;BME280;16501;51.462;14.346;2023-11-18T00:41:49;100727.31;;;3.04;100.00
29569;BME280;16501;51.462;14.346;2023-11-18T00:44:14;100732.44;;;3.09;100.00
29569;BME280;16501;51.462;14.346;2023-11-18T00:46:39;100738.00;;;3.06;100.00
29569;BME280;16501;51.462;14.346;2023-11-18T00:49:05;100722.31;;;2.88;100.00
29569;BME280;16501;51.462;14.346;2023-11-18T00:51:30;100744.69;;;3.12;100.00
29569;BME280;16501;51.462;14.346;2023-11-18T00:53:56;100741.94;;;3.08;100.00
29569;BME280;16501;51.462;14.346;2023-11-18T00:56:21;100733.38;;;2.92;100.00
29569;BME280;16501;51.462;14.346;2023-11-18T00:58:47;100741.94;;;3.08;100.00
29569;BME280;16501;51.462;14.346;2023-11-18T01:01:12;100748.66;;;3.11;100.00
29569;BME280;16501;51.462;14.346;2023-11-18T01:03:38;100740.91;;;2.91;100.00
29569;BME280;16501;51.462;14.346;2023-11-18T01:06:03;100758.25;;;2.99;100.00
29569;BME280;16501;51.462;14.346;2023-11-18T01:08:30;100746.47;;;2.88;100.00
29569;BME280;16501;51.462;14.346;2023-11-18T01:10:55;100773.25;;;3.05;100.00
29569;BME280;16501;51.462;14.346;2023-11-18T01:13:20;100771.63;;;3.08;100.00
29569;BME280;16501;51.462;14.346;2023-11-18T01:15:45;100739.38;;;2.83;100.00
29569;BME280;16501;51.462;14.346;2023-11-18T01:18:10;100769.75;;;2.94;100.00
29569;BME280;16501;51.462;14.346;2023-11-18T01:20:36;100793.78;;;3.08;100.00
29569;BME280;16501;51.462;14.346;2023-11-18T01:23:02;100787.91;;;3.02;100.00
29569;BME280;16501;51.462;14.346;2023-11-18T01:25:27;100752.03;;;2.84;100.00
29569;BME280;16501;51.462;14.346;2023-11-18T01:27:53;100781.19;;;2.99;100.00
29569;BME280;16501;51.462;14.346;2023-11-18T01:30:20;100792.59;;;3.09;100.00
29569;BME280;16501;51.462;14.346;2023-11-18T01:32:45;100795.84;;;3.00;100.00
29569;BME280;16501;51.462;14.346;2023-11-18T01:35:11;100793.00;;;3.07;100.00
29569;BME280;16501;51.462;14.346;2023-11-18T01:37:37;100773.75;;;2.93;100.00
29569;BME280;16501;51.462;14.346;2023-11-18T01:40:03;100787.50;;;3.04;100.00
29569;BME280;16501;51.462;14.346;2023-11-18T01:42:32;100785.06;;;3.09;100.00
29569;BME280;16501;51.462;14.346;2023-11-18T01:44:57;100783.47;;;3.12;100.00
29569;BME280;16501;51.462;14.346;2023-11-18T01:47:25;100805.63;;;3.15;100.00
29569;BME280;16501;51.462;14.346;2023-11-18T01:50:07;100805.59;;;3.19;100.00
29569;BME280;16501;51.462;14.346;2023-11-18T01:52:35;100804.00;;;3.18;100.00
29569;BME280;16501;51.462;14.346;2023-11-18T01:55:01;100785.88;;;3.06;100.00
29569;BME280;16501;51.462;14.346;2023-11-18T01:57:29;100806.75;;;3.21;100.00
29569;BME280;16501;51.462;14.346;2023-11-18T01:59:54;100812.28;;;3.21;100.00
29569;BME280;16501;51.462;14.346;2023-11-18T02:02:20;100815.53;;;3.13;100.00
29569;BME280;16501;51.462;14.346;2023-11-18T02:04:48;100819.91;;;3.10;100.00
29569;BME280;16501;51.462;14.346;2023-11-18T02:07:14;100821.03;;;3.16;100.00
29569;BME280;16501;51.462;14.346;2023-11-18T02:09:40;100824.22;;;3.11;100.00
29569;BME280;16501;51.462;14.346;2023-11-18T02:12:33;100828.22;;;3.10;100.00
29569;BME280;16501;51.462;14.346;2023-11-18T02:15:06;100800.28;;;2.87;100.00
29569;BME280;16501;51.462;14.346;2023-11-18T02:17:37;100810.53;;;2.93;100.00
29569;BME280;16501;51.462;14.346;2023-11-18T02:20:04;100816.44;;;2.95;100.00
29569;BME280;16501;51.462;14.346;2023-11-18T02:22:36;100827.09;;;3.00;100.00
29569;BME280;16501;51.462;14.346;2023-11-18T02:25:01;100810.59;;;2.82;100.00
29569;BME280;16501;51.462;14.346;2023-11-18T02:27:31;100832.28;;;2.95;100.00
29569;BME280;16501;51.462;14.346;2023-11-18T02:29:56;100831.09;;;2.92;100.00
29569;BME280;16501;51.462;14.346;2023-11-18T02:32:33;100820.03;;;2.89;100.00
29569;BME280;16501;51.462;14.346;2023-11-18T02:35:08;100833.13;;;2.88;100.00
29569;BME280;16501;51.462;14.346;2023-11-18T02:37:37;100841.41;;;2.92;100.00
29569;BME280;16501;51.462;14.346;2023-11-18T02:40:04;100816.19;;;2.75;100.00
29569;BME280;16501;51.462;14.346;2023-11-18T02:42:39;100837.47;;;2.89;100.00
29569;BME280;16501;51.462;14.346;2023-11-18T02:45:07;100839.03;;;2.90;100.00
29569;BME280;16501;51.462;14.346;2023-11-18T02:47:33;100837.13;;;2.80;100.00
29569;BME280;16501;51.462;14.346;2023-11-18T02:49:58;100794.94;;;2.58;100.00
29569;BME280;16501;51.462;14.346;2023-11-18T02:52:30;100814.59;;;2.78;100.00
29569;BME280;16501;51.462;14.346;2023-11-18T02:54:56;100839.81;;;2.91;100.00
29569;BME280;16501;51.462;14.346;2023-11-18T02:57:21;100827.59;;;2.85;100.00
29569;BME280;16501;51.462;14.346;2023-11-18T02:59:46;100840.19;;;2.96;100.00
29569;BME280;16501;51.462;14.346;2023-11-18T03:02:12;100812.22;;;2.76;100.00
29569;BME280;16501;51.462;14.346;2023-11-18T03:04:37;100822.06;;;2.85;100.00
29569;BME280;16501;51.462;14.346;2023-11-18T03:07:02;100820.03;;;2.89;100.00
29569;BME280;16501;51.462;14.346;2023-11-18T03:09:27;100837.38;;;3.04;100.00
29569;BME280;16501;51.462;14.346;2023-11-18T03:11:53;100848.78;;;3.09;100.00
29569;BME280;16501;51.462;14.346;2023-11-18T03:14:20;100833.84;;;2.96;100.00
29569;BME280;16501;51.462;14.346;2023-11-18T03:16:45;100833.03;;;2.99;100.00
29569;BME280;16501;51.462;14.346;2023-11-18T03:19:10;100845.66;;;3.07;100.00
29569;BME280;16501;51.462;14.346;2023-11-18T03:21:35;100847.66;;;2.99;100.00
29569;BME280;16501;51.462;14.346;2023-11-18T03:24:01;100848.41;;;3.07;100.00
29569;BME280;16501;51.462;14.346;2023-11-18T03:26:26;100837.03;;;2.91;100.00
29569;BME280;16501;51.462;14.346;2023-11-18T03:28:52;100831.91;;;2.93;100.00
29569;BME280;16501;51.462;14.346;2023-11-18T03:31:17;100841.78;;;2.94;100.00
29569;BME280;16501;51.462;14.346;2023-11-18T03:33:42;100858.28;;;3.08;100.00
29569;BME280;16501;51.462;14.346;2023-11-18T03:36:08;100850.88;;;2.98;100.00
29569;BME280;16501;51.462;14.346;2023-11-18T03:38:33;100848.47;;;3.00;100.00
29569;BME280;16501;51.462;14.346;2023-11-18T03:40:59;100854.81;;;2.97;100.00
29569;BME280;16501;51.462;14.346;2023-11-18T03:43:24;100865.13;;;2.96;100.00
29569;BME280;16501;51.462;14.346;2023-11-18T03:45:49;100859.19;;;2.98;100.00
29569;BME280;16501;51.462;14.346;2023-11-18T03:48:14;100865.91;;;2.97;100.00
29569;BME280;16501;51.462;14.346;2023-11-18T03:50:40;100863.09;;;3.00;100.00
29569;BME280;16501;51.462;14.346;2023-11-18T03:53:06;100857.94;;;3.02;100.00
29569;BME280;16501;51.462;14.346;2023-11-18T03:55:31;100846.19;;;2.88;100.00
29569;BME280;16501;51.462;14.346;2023-11-18T03:57:57;100850.13;;;2.87;100.00
29569;BME280;16501;51.462;14.346;2023-11-18T04:00:22;100865.16;;;2.93;100.00
29569;BME280;16501;51.462;14.346;2023-11-18T04:02:47;100845.41;;;2.83;100.00
29569;BME280;16501;51.462;14.346;2023-11-18T04:05:13;100869.09;;;2.92;100.00
29569;BME280;16501;51.462;14.346;2023-11-18T04:07:41;100855.72;;;2.79;100.00
29569;BME280;16501;51.462;14.346;2023-11-18T04:10:08;100859.19;;;2.91;100.00
29569;BME280;16501;51.462;14.346;2023-11-18T04:12:35;100869.84;;;2.96;100.00
29569;BME280;16501;51.462;14.346;2023-11-18T04:15:01;100867.47;;;2.94;100.00
29569;BME280;16501;51.462;14.346;2023-11-18T04:17:26;100838.31;;;2.79;100.00
29569;BME280;16501;51.462;14.346;2023-11-18T04:19:53;100855.63;;;2.94;100.00
29569;BME280;16501;51.462;14.346;2023-11-18T04:22:20;100863.25;;;2.79;100.00
29569;BME280;16501;51.462;14.346;2023-11-18T04:24:46;100866.00;;;2.82;100.00
29569;BME280;16501;51.462;14.346;2023-11-18T04:27:12;100877.06;;;2.82;100.00
29569;BME280;16501;51.462;14.346;2023-11-18T04:29:37;100879.84;;;2.82;100.00
29569;BME280;16501;51.462;14.346;2023-11-18T04:32:03;100849.50;;;2.57;100.00
29569;BME280;16501;51.462;14.346;2023-11-18T04:34:28;100865.28;;;2.64;100.00
29569;BME280;16501;51.462;14.346;2023-11-18T04:36:54;100889.72;;;2.83;100.00
29569;BME280;16501;51.462;14.346;2023-11-18T04:39:19;100885.75;;;2.88;100.00
29569;BME280;16501;51.462;14.346;2023-11-18T04:41:46;100880.56;;;2.94;100.00
29569;BME280;16501;51.462;14.346;2023-11-18T04:44:11;100891.22;;;2.95;100.00
29569;BME280;16501;51.462;14.346;2023-11-18T04:46:36;100874.69;;;2.85;100.00
29569;BME280;16501;51.462;14.346;2023-11-18T04:49:02;100881.00;;;2.85;100.00
29569;BME280;16501;51.462;14.346;2023-11-18T04:51:27;100887.31;;;2.86;100.00
29569;BME280;16501;51.462;14.346;2023-11-18T04:53:52;100887.31;;;2.86;100.00
29569;BME280;16501;51.462;14.346;2023-11-18T04:56:18;100898.81;;;2.88;100.00
29569;BME280;16501;51.462;14.346;2023-11-18T04:58:43;100899.22;;;2.86;100.00
29569;BME280;16501;51.462;14.346;2023-11-18T05:01:11;100883.47;;;2.72;100.00
29569;BME280;16501;51.462;14.346;2023-11-18T05:03:38;100894.88;;;2.81;100.00
29569;BME280;16501;51.462;14.346;2023-11-18T05:06:03;100897.66;;;2.81;100.00
29569;BME280;16501;51.462;14.346;2023-11-18T05:08:29;100900.84;;;2.76;100.00
29569;BME280;16501;51.462;14.346;2023-11-18T05:10:55;100903.97;;;2.78;100.00
29569;BME280;16501;51.462;14.346;2023-11-18T05:13:20;100904.38;;;2.77;100.00
29569;BME280;16501;51.462;14.346;2023-11-18T05:15:47;100898.16;;;2.58;100.00
29569;BME280;16501;51.462;14.346;2023-11-18T05:18:12;100907.22;;;2.66;100.00
29569;BME280;16501;51.462;14.346;2023-11-18T05:20:46;100901.63;;;2.77;100.00
29569;BME280;16501;51.462;14.346;2023-11-18T05:23:12;100903.97;;;2.78;100.00
29569;BME280;16501;51.462;14.346;2023-11-18T05:25:42;100913.06;;;2.86;100.00
29569;BME280;16501;51.462;14.346;2023-11-18T05:28:08;100906.34;;;2.80;100.00
29569;BME280;16501;51.462;14.346;2023-11-18T05:30:37;100902.47;;;2.70;100.00
29569;BME280;16501;51.462;14.346;2023-11-18T05:33:05;100877.59;;;2.56;100.00
29569;BME280;16501;51.462;14.346;2023-11-18T05:35:31;100915.06;;;2.78;100.00
29569;BME280;16501;51.462;14.346;2023-11-18T05:37:58;100909.53;;;2.78;100.00
29569;BME280;16501;51.462;14.346;2023-11-18T05:40:23;100885.91;;;2.56;100.00
29569;BME280;16501;51.462;14.346;2023-11-18T05:42:50;100915.47;;;2.80;100.00
29569;BME280;16501;51.462;14.346;2023-11-18T05:45:17;100898.53;;;2.64;100.00
29569;BME280;16501;51.462;14.346;2023-11-18T05:47:54;100915.88;;;2.75;100.00
29569;BME280;16501;51.462;14.346;2023-11-18T05:50:19;100899.72;;;2.67;100.00
29569;BME280;16501;51.462;14.346;2023-11-18T05:52:44;100908.03;;;2.59;100.00
29569;BME280;16501;51.462;14.346;2023-11-18T05:55:10;100868.59;;;2.34;100.00
29569;BME280;16501;51.462;14.346;2023-11-18T05:57:36;100916.28;;;2.77;100.00
29569;BME280;16501;51.462;14.346;2023-11-18T06:00:01;100908.75;;;2.74;100.00
29569;BME280;16501;51.462;14.346;2023-11-18T06:02:26;100904.47;;;2.59;100.00
29569;BME280;16501;51.462;14.346;2023-11-18T06:04:51;100917.50;;;2.69;100.00
29569;BME280;16501;51.462;14.346;2023-11-18T06:07:17;100918.66;;;2.68;100.00
29569;BME280;16501;51.462;14.346;2023-11-18T06:09:44;100897.38;;;2.58;100.00
29569;BME280;16501;51.462;14.346;2023-11-18T06:12:10;100921.06;;;2.66;100.00
29569;BME280;16501;51.462;14.346;2023-11-18T06:14:37;100898.97;;;2.55;100.00
29569;BME280;16501;51.462;14.346;2023-11-18T06:17:02;100927.38;;;2.74;100.00
29569;BME280;16501;51.462;14.346;2023-11-18T06:19:28;100923.84;;;2.59;100.00
29569;BME280;16501;51.462;14.346;2023-11-18T06:21:53;100933.69;;;2.71;100.00
29569;BME280;16501;51.462;14.346;2023-11-18T06:24:18;100929.75;;;2.72;100.00
29569;BME280;16501;51.462;14.346;2023-11-18T06:26:43;100942.84;;;2.60;100.00
29569;BME280;16501;51.462;14.346;2023-11-18T06:29:09;100936.09;;;2.65;100.00
29569;BME280;16501;51.462;14.346;2023-11-18T06:31:35;100921.53;;;2.50;100.00
29569;BME280;16501;51.462;14.346;2023-11-18T06:34:00;100920.31;;;2.58;100.00
29569;BME280;16501;51.462;14.346;2023-11-18T06:36:27;100944.38;;;2.72;100.00
29569;BME280;16501;51.462;14.346;2023-11-18T06:38:54;100927.81;;;2.61;100.00
29569;BME280;16501;51.462;14.346;2023-11-18T06:41:21;100946.38;;;2.72;100.00
29569;BME280;16501;51.462;14.346;2023-11-18T06:44:10;100937.28;;;2.64;100.00
29569;BME280;16501;51.462;14.346;2023-11-18T06:46:38;100938.06;;;2.72;100.00
29569;BME280;16501;51.462;14.346;2023-11-18T06:49:05;100954.66;;;2.75;100.00
29569;BME280;16501;51.462;14.346;2023-11-18T06:51:32;100957.03;;;2.73;100.00
29569;BME280;16501;51.462;14.346;2023-11-18T06:54:00;100956.63;;;2.75;100.00
29569;BME280;16501;51.462;14.346;2023-11-18T06:56:30;100931.78;;;2.57;100.00
29569;BME280;16501;51.462;14.346;2023-11-18T06:58:55;100953.84;;;2.75;100.00
29569;BME280;16501;51.462;14.346;2023-11-18T07:01:20;100955.06;;;2.74;100.00
29569;BME280;16501;51.462;14.346;2023-11-18T07:03:47;100960.97;;;2.79;100.00
29569;BME280;16501;51.462;14.346;2023-11-18T07:06:19;100964.53;;;2.76;100.00
29569;BME280;16501;51.462;14.346;2023-11-18T07:08:49;100982.75;;;2.77;100.00
29569;BME280;16501;51.462;14.346;2023-11-18T07:11:15;100983.91;;;2.76;100.00
29569;BME280;16501;51.462;14.346;2023-11-18T07:13:40;100952.34;;;2.52;100.00
29569;BME280;16501;51.462;14.346;2023-11-18T07:16:07;100985.53;;;2.74;100.00
29569;BME280;16501;51.462;14.346;2023-11-18T07:18:34;100985.91;;;2.72;100.00
29569;BME280;16501;51.462;14.346;2023-11-18T07:20:59;100974.50;;;2.63;100.00
29569;BME280;16501;51.462;14.346;2023-11-18T07:23:25;100969.34;;;2.65;100.00
29569;BME280;16501;51.462;14.346;2023-11-18T07:25:51;100981.16;;;2.76;100.00
29569;BME280;16501;51.462;14.346;2023-11-18T07:28:16;100977.16;;;2.85;100.00
29569;BME280;16501;51.462;14.346;2023-11-18T07:30:42;100970.06;;;2.76;100.00
29569;BME280;16501;51.462;14.346;2023-11-18T07:33:12;100964.13;;;2.78;100.00
29569;BME280;16501;51.462;14.346;2023-11-18T07:35:37;100991.75;;;2.96;100.00
29569;BME280;16501;51.462;14.346;2023-11-18T07:38:03;100984.25;;;2.86;100.00
29569;BME280;16501;51.462;14.346;2023-11-18T07:40:28;100991.38;;;2.90;100.00
29569;BME280;16501;51.462;14.346;2023-11-18T07:42:54;100983.13;;;2.79;100.00
29569;BME280;16501;51.462;14.346;2023-11-18T07:45:21;100989.06;;;2.74;100.00
29569;BME280;16501;51.462;14.346;2023-11-18T07:47:48;100957.06;;;2.66;100.00
29569;BME280;16501;51.462;14.346;2023-11-18T07:50:16;100990.22;;;2.84;100.00
29569;BME280;16501;51.462;14.346;2023-11-18T07:52:41;100995.00;;;2.76;100.00
29569;BME280;16501;51.462;14.346;2023-11-18T07:55:06;101003.25;;;2.91;100.00
29569;BME280;16501;51.462;14.346;2023-11-18T07:57:34;100989.44;;;2.80;100.00
29569;BME280;16501;51.462;14.346;2023-11-18T08:00:01;100995.78;;;2.80;100.00
29569;BME280;16501;51.462;14.346;2023-11-18T08:02:30;100989.03;;;2.81;100.00
29569;BME280;16501;51.462;14.346;2023-11-18T08:04:56;101002.44;;;2.97;100.00
29569;BME280;16501;51.462;14.346;2023-11-18T08:07:21;101002.81;;;3.03;100.00
29569;BME280;16501;51.462;14.346;2023-11-18T08:09:47;101015.50;;;2.97;100.00
29569;BME280;16501;51.462;14.346;2023-11-18T08:12:13;101027.31;;;3.05;100.00
29569;BME280;16501;51.462;14.346;2023-11-18T08:14:38;101018.66;;;2.99;100.00
29569;BME280;16501;51.462;14.346;2023-11-18T08:17:03;101015.13;;;2.91;100.00
29569;BME280;16501;51.462;14.346;2023-11-18T08:19:30;101030.50;;;3.07;100.00
29569;BME280;16501;51.462;14.346;2023-11-18T08:21:56;101016.28;;;2.94;100.00
29569;BME280;16501;51.462;14.346;2023-11-18T08:24:21;101015.53;;;2.90;100.00
29569;BME280;16501;51.462;14.346;2023-11-18T08:26:47;101045.56;;;2.98;100.00
29569;BME280;16501;51.462;14.346;2023-11-18T08:29:12;101050.75;;;2.93;100.00
29569;BME280;16501;51.462;14.346;2023-11-18T08:31:38;101052.69;;;3.03;100.00
29569;BME280;16501;51.462;14.346;2023-11-18T08:34:04;101021.88;;;2.87;100.00
29569;BME280;16501;51.462;14.346;2023-11-18T08:36:30;101026.16;;;3.02;100.00
29569;BME280;16501;51.462;14.346;2023-11-18T08:38:57;101031.28;;;3.07;100.00
29569;BME280;16501;51.462;14.346;2023-11-18T08:41:22;101026.91;;;3.13;100.00
29569;BME280;16501;51.462;14.346;2023-11-18T08:43:48;101031.28;;;3.07;100.00
29569;BME280;16501;51.462;14.346;2023-11-18T08:46:14;101035.63;;;3.15;100.00
29569;BME280;16501;51.462;14.346;2023-11-18T08:48:40;101059.69;;;3.26;100.00
29569;BME280;16501;51.462;14.346;2023-11-18T08:51:06;101048.66;;;3.18;100.00
29569;BME280;16501;51.462;14.346;2023-11-18T08:53:33;101062.84;;;3.35;100.00
29569;BME280;16501;51.462;14.346;2023-11-18T08:56:09;101067.59;;;3.38;100.00
29569;BME280;16501;51.462;14.346;2023-11-18T08:58:42;101061.66;;;3.29;100.00
29569;BME280;16501;51.462;14.346;2023-11-18T09:01:07;101064.47;;;3.25;100.00
29569;BME280;16501;51.462;14.346;2023-11-18T09:03:39;101061.22;;;3.37;100.00
29569;BME280;16501;51.462;14.346;2023-11-18T09:06:09;101072.25;;;3.48;100.00
29569;BME280;16501;51.462;14.346;2023-11-18T09:08:45;101051.97;;;3.62;100.00
29569;BME280;16501;51.462;14.346;2023-11-18T09:11:13;101048.41;;;3.65;100.00
29569;BME280;16501;51.462;14.346;2023-11-18T09:13:46;101075.25;;;3.79;100.00
29569;BME280;16501;51.462;14.346;2023-11-18T09:16:19;101079.25;;;3.78;100.00
29569;BME280;16501;51.462;14.346;2023-11-18T09:18:47;101072.19;;;3.66;100.00
29569;BME280;16501;51.462;14.346;2023-11-18T09:21:14;101083.66;;;3.68;100.00
29569;BME280;16501;51.462;14.346;2023-11-18T09:23:41;101081.00;;;3.50;100.00
29569;BME280;16501;51.462;14.346;2023-11-18T09:26:07;101064.81;;;3.38;100.00
29569;BME280;16501;51.462;14.346;2023-11-18T09:28:34;101095.19;;;3.59;100.00
29569;BME280;16501;51.462;14.346;2023-11-18T09:31:04;101097.59;;;3.57;100.00
29569;BME280;16501;51.462;14.346;2023-11-18T09:33:31;101103.94;;;3.54;100.00
29569;BME280;16501;51.462;14.346;2023-11-18T09:36:07;101092.09;;;3.47;100.00
29569;BME280;16501;51.462;14.346;2023-11-18T09:38:36;101100.41;;;3.50;100.00
29569;BME280;16501;51.462;14.346;2023-11-18T09:41:03;101065.22;;;3.36;100.00
29569;BME280;16501;51.462;14.346;2023-11-18T09:43:35;101108.69;;;3.57;100.00
29569;BME280;16501;51.462;14.346;2023-11-18T09:46:16;101100.75;;;3.59;100.00
29569;BME280;16501;51.462;14.346;2023-11-18T09:48:46;101109.47;;;3.58;100.00
29569;BME280;16501;51.462;14.346;2023-11-18T09:51:28;101096.75;;;3.68;100.00
29569;BME280;16501;51.462;14.346;2023-11-18T09:54:04;101094.38;;;3.63;100.00
29569;BME280;16501;51.462;14.346;2023-11-18T09:56:51;101090.53;;;3.42;100.00
29569;BME280;16501;51.462;14.346;2023-11-18T09:59:32;101098.38;;;3.54;100.00
29569;BME280;16501;51.462;14.346;2023-11-18T10:02:02;101106.25;;;3.67;100.00
29569;BME280;16501;51.462;14.346;2023-11-18T10:04:35;101090.44;;;3.56;100.00
29569;BME280;16501;51.462;14.346;2023-11-18T10:07:03;101106.66;;;3.62;100.00
29569;BME280;16501;51.462;14.346;2023-11-18T10:09:28;101071.16;;;3.35;100.00
29569;BME280;16501;51.462;14.346;2023-11-18T10:11:55;101086.53;;;3.50;100.00
29569;BME280;16501;51.462;14.346;2023-11-18T10:14:41;101096.38;;;3.58;100.00
29569;BME280;16501;51.462;14.346;2023-11-18T10:17:09;101083.31;;;3.59;100.00
29569;BME280;16501;51.462;14.346;2023-11-18T10:19:53;101109.34;;;3.76;100.00
29569;BME280;16501;51.462;14.346;2023-11-18T10:22:23;101090.00;;;3.65;100.00
29569;BME280;16501;51.462;14.346;2023-11-18T10:24:49;101089.56;;;3.70;100.00
29569;BME280;16501;51.462;14.346;2023-11-18T10:27:14;101097.53;;;3.68;100.00
29569;BME280;16501;51.462;14.346;2023-11-18T10:29:40;101101.88;;;3.73;100.00
29569;BME280;16501;51.462;14.346;2023-11-18T10:32:06;101098.66;;;3.78;100.00
29569;BME280;16501;51.462;14.346;2023-11-18T10:34:37;101090.78;;;3.69;100.00
29569;BME280;16501;51.462;14.346;2023-11-18T10:37:02;101090.78;;;3.73;100.00
29569;BME280;16501;51.462;14.346;2023-11-18T10:39:32;101091.91;;;3.79;100.00
29569;BME280;16501;51.462;14.346;2023-11-18T10:42:00;101059.47;;;3.69;100.00
29569;BME280;16501;51.462;14.346;2023-11-18T10:44:26;101046.06;;;3.60;100.00
29569;BME280;16501;51.462;14.346;2023-11-18T10:46:52;101080.75;;;3.86;100.00
29569;BME280;16501;51.462;14.346;2023-11-18T10:49:18;101077.19;;;3.89;100.00
29569;BME280;16501;51.462;14.346;2023-11-18T10:51:46;101070.03;;;3.88;100.00
29569;BME280;16501;51.462;14.346;2023-11-18T10:54:12;101078.72;;;3.97;100.00
29569;BME280;16501;51.462;14.346;2023-11-18T10:56:49;101071.97;;;3.95;100.00
29569;BME280;16501;51.462;14.346;2023-11-18T10:59:15;101070.81;;;3.92;100.00
29569;BME280;16501;51.462;14.346;2023-11-18T11:01:42;101068.00;;;4.00;100.00
29569;BME280;16501;51.462;14.346;2023-11-18T11:04:08;101060.84;;;3.99;100.00
29569;BME280;16501;51.462;14.346;2023-11-18T11:06:36;101071.13;;;4.05;100.00
29569;BME280;16501;51.462;14.346;2023-11-18T11:09:07;101058.13;;;3.91;100.00
29569;BME280;16501;51.462;14.346;2023-11-18T11:11:40;101080.66;;;4.04;100.00
29569;BME280;16501;51.462;14.346;2023-11-18T11:14:08;101069.97;;;4.03;100.00
29569;BME280;16501;51.462;14.346;2023-11-18T11:16:41;101077.81;;;4.11;100.00
29569;BME280;16501;51.462;14.346;2023-11-18T11:19:26;101087.72;;;4.09;100.00
29569;BME280;16501;51.462;14.346;2023-11-18T11:22:04;101096.06;;;4.09;100.00
29569;BME280;16501;51.462;14.346;2023-11-18T11:24:54;101090.88;;;4.11;100.00
29569;BME280;16501;51.462;14.346;2023-11-18T11:27:25;101100.84;;;4.08;100.00
29569;BME280;16501;51.462;14.346;2023-11-18T11:30:10;101075.91;;;4.01;100.00
29569;BME280;16501;51.462;14.346;2023-11-18T11:32:45;101090.50;;;4.09;100.00
29569;BME280;16501;51.462;14.346;2023-11-18T11:35:32;101103.94;;;4.14;100.00
29569;BME280;16501;51.462;14.346;2023-11-18T11:37:59;101092.13;;;4.06;100.00
29569;BME280;16501;51.462;14.346;2023-11-18T11:40:33;101086.19;;;4.04;100.00
29569;BME280;16501;51.462;14.346;2023-11-18T11:43:02;101086.94;;;4.08;100.00
29569;BME280;16501;51.462;14.346;2023-11-18T11:45:30;101097.50;;;4.28;100.00
29569;BME280;16501;51.462;14.346;2023-11-18T11:47:57;101086.34;;;4.35;100.00
29569;BME280;16501;51.462;14.346;2023-11-18T11:51:00;101082.50;;;4.22;100.00
29569;BME280;16501;51.462;14.346;2023-11-18T11:53:33;101093.09;;;4.34;100.00
29569;BME280;16501;51.462;14.346;2023-11-18T11:56:01;101093.03;;;4.41;100.00
29569;BME280;16501;51.462;14.346;2023-11-18T11:58:35;101075.97;;;4.43;100.00
29569;BME280;16501;51.462;14.346;2023-11-18T12:01:16;101083.09;;;4.44;100.00
29569;BME280;16501;51.462;14.346;2023-11-18T12:03:48;101078.03;;;4.31;100.00
29569;BME280;16501;51.462;14.346;2023-11-18T12:06:24;101087.06;;;4.43;100.00
29569;BME280;16501;51.462;14.346;2023-11-18T12:08:53;101080.81;;;4.31;100.00
29569;BME280;16501;51.462;14.346;2023-11-18T12:11:19;101089.84;;;4.43;100.00
29569;BME280;16501;51.462;14.346;2023-11-18T12:14:05;101073.66;;;4.34;100.00
29569;BME280;16501;51.462;14.346;2023-11-18T12:17:04;101073.22;;;4.39;100.00
29569;BME280;16501;51.462;14.346;2023-11-18T12:19:36;101055.81;;;4.31;100.00
29569;BME280;16501;51.462;14.346;2023-11-18T12:22:09;101054.72;;;4.25;100.00
29569;BME280;16501;51.462;14.346;2023-11-18T12:24:38;101061.28;;;4.42;100.00
29569;BME280;16501;51.462;14.346;2023-11-18T12:27:05;101042.75;;;4.32;100.00
29569;BME280;16501;51.462;14.346;2023-11-18T12:29:44;101045.03;;;4.44;100.00
29569;BME280;16501;51.462;14.346;2023-11-18T12:32:10;101042.00;;;4.66;100.00
29569;BME280;16501;51.462;14.346;2023-11-18T12:34:54;101021.09;;;4.54;100.00
29569;BME280;16501;51.462;14.346;2023-11-18T12:37:45;101027.78;;;4.60;100.00
29569;BME280;16501;51.462;14.346;2023-11-18T12:43:16;101027.06;;;4.52;100.00
29569;BME280;16501;51.462;14.346;2023-11-18T12:46:09;101030.19;;;4.58;100.00
29569;BME280;16501;51.462;14.346;2023-11-18T12:48:49;101028.66;;;4.53;100.00